Time;durP1;ratioP1;P1;durP2;ratioP2;P2;SDS_P1;SDS_P2;PMS_P1;PMS_P2;Temp;Humidity;BMP_temperature;BMP_pressure;BME280_temperature;BME280_humidity;BME280_pressure;Samples;Min_cycle;Max_cycle;Signal;HPM_P1;HPM_P2
2023/04/13 00:01:26;;;;;;;;;;;10.70;89.70;;;;;;6158461;23;19905;-96
2023/04/13 00:03:52;;;;;;;;;;;10.60;89.90;;;;;;6158132;23;19905;-95
2023/04/13 00:06:18;;;;;;;;;;;10.60;90.00;;;;;;6158571;23;19909;-95
2023/04/13 00:08:45;;;;;;;;;;;10.60;90.30;;;;;;6157845;23;19920;-96
2023/04/13 00:11:11;;;;;;;;;;;10.40;90.50;;;;;;6158867;23;19904;-95
2023/04/13 00:13:39;;;;;;;;;;;10.40;90.40;;;;;;6158156;23;19904;-96
2023/04/13 00:16:06;;;;;;;;;;;10.40;90.50;;;;;;6158503;23;19951;-95
2023/04/13 00:18:32;;;;;;;;;;;10.40;90.80;;;;;;6158407;23;20366;-95
2023/04/13 00:20:58;;;;;;;;;;;10.40;90.90;;;;;;6158722;23;19905;-96
2023/04/13 00:23:24;;;;;;;;;;;10.40;90.60;;;;;;6158378;23;19909;-96
2023/04/13 00:25:50;;;;;;;;;;;10.40;90.40;;;;;;6158393;23;20000;-95
2023/04/13 00:28:17;;;;;;;;;;;10.40;90.40;;;;;;6158190;23;19932;-96
2023/04/13 00:30:43;;;;;;;;;;;10.40;90.40;;;;;;6131903;23;19909;-95
2023/04/13 00:33:08;;;;;;;;;;;10.40;90.20;;;;;;6158621;23;20377;-96
2023/04/13 00:35:34;;;;;;;;;;;10.40;90.00;;;;;;6157871;23;20243;-95
2023/04/13 00:38:01;;;;;;;;;;;10.40;90.00;;;;;;6158310;23;19912;-96
2023/04/13 00:40:28;;;;;;;;;;;10.50;89.90;;;;;;6157846;23;20354;-95
2023/04/13 00:42:54;;;;;;;;;;;10.50;89.90;;;;;;6158224;23;19963;-95
2023/04/13 00:45:20;;;;;;;;;;;10.60;89.90;;;;;;6158177;23;19905;-95
2023/04/13 00:47:46;;;;;;;;;;;10.60;89.90;;;;;;6158020;23;19909;-96
2023/04/13 00:50:12;;;;;;;;;;;10.70;89.70;;;;;;6157811;23;19911;-96
2023/04/13 00:52:39;;;;;;;;;;;10.70;89.70;;;;;;6158117;23;19912;-96
2023/04/13 00:55:06;;;;;;;;;;;10.70;89.60;;;;;;6157760;23;19911;-96
2023/04/13 00:57:32;;;;;;;;;;;10.80;89.60;;;;;;6158100;23;19905;-95
2023/04/13 00:59:58;;;;;;;;;;;10.80;89.50;;;;;;6157756;23;19956;-96
2023/04/13 01:02:25;;;;;;;;;;;10.80;89.40;;;;;;6157801;23;19939;-96
2023/04/13 01:04:54;;;;;;;;;;;10.80;89.50;;;;;;6157624;23;20323;-96
2023/04/13 01:07:40;;;;;;;;;;;10.90;89.50;;;;;;6157871;23;19917;-95
2023/04/13 01:10:26;;;;;;;;;;;10.90;89.40;;;;;;6157417;23;19904;-96
2023/04/13 01:13:02;;;;;;;;;;;11.00;89.20;;;;;;6157998;23;19905;-96
2023/04/13 01:15:28;;;;;;;;;;;11.00;88.90;;;;;;6158297;23;19951;-96
2023/04/13 01:17:56;;;;;;;;;;;11.00;88.70;;;;;;6157555;23;19961;-96
2023/04/13 01:20:24;;;;;;;;;;;11.00;88.40;;;;;;6157900;23;20315;-96
2023/04/13 01:22:54;;;;;;;;;;;11.00;87.90;;;;;;6157879;23;19904;-96
2023/04/13 01:25:23;;;;;;;;;;;11.10;87.80;;;;;;6157861;23;19904;-95
2023/04/13 01:28:02;;;;;;;;;;;11.00;87.50;;;;;;6157380;23;19915;-96
2023/04/13 01:30:30;;;;;;;;;;;11.00;87.40;;;;;;6157626;23;19905;-96
2023/04/13 01:32:57;;;;;;;;;;;11.00;87.40;;;;;;6157765;23;19905;-96
2023/04/13 01:35:24;;;;;;;;;;;11.10;87.40;;;;;;6157527;23;19979;-96
2023/04/13 01:37:52;;;;;;;;;;;11.10;87.40;;;;;;6157717;23;19905;-96
2023/04/13 01:40:22;;;;;;;;;;;11.00;87.80;;;;;;6157330;23;19905;-95
2023/04/13 01:42:48;;;;;;;;;;;11.00;87.90;;;;;;6157962;23;19911;-96
2023/04/13 01:45:18;;;;;;;;;;;10.90;87.90;;;;;;6157641;23;19995;-95
2023/04/13 01:47:51;;;;;;;;;;;11.00;88.00;;;;;;6157873;23;19916;-96
2023/04/13 01:50:38;;;;;;;;;;;11.00;88.30;;;;;;6157175;23;19905;-94
2023/04/13 01:53:10;;;;;;;;;;;11.10;88.60;;;;;;6157894;23;19905;-96
2023/04/13 01:55:37;;;;;;;;;;;11.10;88.60;;;;;;6157505;23;19912;-96
2023/04/13 01:58:04;;;;;;;;;;;11.00;89.10;;;;;;6157873;23;19905;-96
2023/04/13 02:00:34;;;;;;;;;;;11.00;89.10;;;;;;6157491;23;19905;-96
2023/04/13 02:03:01;;;;;;;;;;;11.00;89.30;;;;;;6157059;23;19943;-96
2023/04/13 02:05:26;;;;;;;;;;;11.00;89.20;;;;;;6157474;23;19905;-96
2023/04/13 02:07:52;;;;;;;;;;;11.00;89.20;;;;;;6156813;23;19988;-96
2023/04/13 02:10:18;;;;;;;;;;;11.10;89.20;;;;;;6157388;23;19912;-96
2023/04/13 02:12:44;;;;;;;;;;;11.10;89.20;;;;;;6130959;23;20017;-96
2023/04/13 02:15:10;;;;;;;;;;;11.10;89.10;;;;;;6157352;23;20331;-96
2023/04/13 02:17:35;;;;;;;;;;;11.10;88.90;;;;;;6156915;23;19996;-96
2023/04/13 02:20:01;;;;;;;;;;;11.10;88.40;;;;;;6157551;23;19912;-96
2023/04/13 02:22:27;;;;;;;;;;;11.00;88.60;;;;;;6156914;23;19912;-95
2023/04/13 02:24:54;;;;;;;;;;;11.00;88.60;;;;;;6157587;23;19936;-95
2023/04/13 02:27:19;;;;;;;;;;;11.00;88.70;;;;;;6157183;23;19940;-96
2023/04/13 02:29:45;;;;;;;;;;;11.10;88.70;;;;;;6157551;23;20311;-95
2023/04/13 02:32:11;;;;;;;;;;;11.10;88.30;;;;;;6156851;23;19904;-95
2023/04/13 02:34:36;;;;;;;;;;;11.10;88.10;;;;;;6157497;23;19912;-95
2023/04/13 02:37:02;;;;;;;;;;;11.00;88.00;;;;;;6157145;23;19904;-96
2023/04/13 02:39:27;;;;;;;;;;;11.00;87.80;;;;;;6157455;23;19905;-95
2023/04/13 02:41:53;;;;;;;;;;;11.00;87.80;;;;;;6156768;23;20241;-95
2023/04/13 02:44:18;;;;;;;;;;;11.00;87.90;;;;;;6157022;23;19930;-96
2023/04/13 02:46:44;;;;;;;;;;;11.00;87.80;;;;;;6157048;23;19987;-96
2023/04/13 02:49:09;;;;;;;;;;;11.00;88.00;;;;;;6157103;23;20306;-96
2023/04/13 02:51:35;;;;;;;;;;;11.00;88.10;;;;;;6157036;23;20207;-95
2023/04/13 02:54:01;;;;;;;;;;;11.00;88.50;;;;;;6156686;23;20243;-95
2023/04/13 02:56:27;;;;;;;;;;;11.00;87.80;;;;;;6157367;23;19911;-95
2023/04/13 02:58:52;;;;;;;;;;;11.10;87.80;;;;;;6156650;23;20335;-96
2023/04/13 03:01:18;;;;;;;;;;;11.10;87.70;;;;;;6156875;23;19905;-95
2023/04/13 03:03:44;;;;;;;;;;;11.10;87.40;;;;;;6156579;23;19900;-96
2023/04/13 03:06:10;;;;;;;;;;;11.10;87.30;;;;;;6157284;23;19959;-95
2023/04/13 03:08:35;;;;;;;;;;;11.10;87.10;;;;;;6156285;23;20327;-94
2023/04/13 03:11:01;;;;;;;;;;;11.10;87.00;;;;;;6157273;23;20218;-96
2023/04/13 03:13:26;;;;;;;;;;;11.10;86.90;;;;;;6156520;23;20326;-95
2023/04/13 03:15:52;;;;;;;;;;;11.10;86.90;;;;;;6156895;23;19905;-95
2023/04/13 03:18:17;;;;;;;;;;;11.10;86.90;;;;;;6156492;23;19912;-96
2023/04/13 03:20:43;;;;;;;;;;;11.20;86.90;;;;;;6157211;23;19904;-96
2023/04/13 03:23:09;;;;;;;;;;;11.20;87.30;;;;;;6156797;23;19992;-95
2023/04/13 03:25:35;;;;;;;;;;;11.20;87.20;;;;;;6157167;23;19908;-95
2023/04/13 03:28:00;;;;;;;;;;;11.10;87.00;;;;;;6156697;23;19915;-95
2023/04/13 03:30:26;;;;;;;;;;;11.10;86.90;;;;;;6156767;23;19928;-95
2023/04/13 03:32:51;;;;;;;;;;;11.10;87.00;;;;;;6157246;23;19908;-96
2023/04/13 03:35:17;;;;;;;;;;;11.00;86.90;;;;;;6158844;23;20345;-95
2023/04/13 03:37:43;;;;;;;;;;;11.00;87.00;;;;;;6158465;23;19964;-96
2023/04/13 03:40:09;;;;;;;;;;;11.00;87.20;;;;;;6159147;23;19905;-94
2023/04/13 03:42:35;;;;;;;;;;;10.90;87.30;;;;;;6158805;23;20341;-96
2023/04/13 03:45:01;;;;;;;;;;;11.00;87.50;;;;;;6159125;23;19905;-96
2023/04/13 03:47:26;;;;;;;;;;;10.90;87.40;;;;;;6158634;23;19916;-96
2023/04/13 03:49:52;;;;;;;;;;;10.90;87.50;;;;;;6158798;23;19904;-95
2023/04/13 03:52:17;;;;;;;;;;;11.00;87.50;;;;;;6158323;23;19962;-95
2023/04/13 03:54:43;;;;;;;;;;;11.00;87.70;;;;;;6158680;23;20234;-96
2023/04/13 03:57:09;;;;;;;;;;;11.00;87.70;;;;;;6158255;23;20239;-96
2023/04/13 03:59:34;;;;;;;;;;;11.00;87.60;;;;;;6158616;23;20238;-95
2023/04/13 04:02:01;;;;;;;;;;;11.00;87.40;;;;;;6132020;23;19904;-95
2023/04/13 04:04:27;;;;;;;;;;;11.00;87.80;;;;;;6158119;23;19988;-95
2023/04/13 04:06:52;;;;;;;;;;;11.00;87.30;;;;;;6158301;23;19912;-96
2023/04/13 04:09:18;;;;;;;;;;;11.00;87.30;;;;;;6158260;23;20381;-95
2023/04/13 04:11:44;;;;;;;;;;;11.10;87.40;;;;;;6158845;23;20303;-96
2023/04/13 04:14:09;;;;;;;;;;;11.10;87.60;;;;;;6158407;23;19939;-96
2023/04/13 04:16:35;;;;;;;;;;;11.10;87.50;;;;;;6158784;23;19909;-96
2023/04/13 04:19:01;;;;;;;;;;;11.10;87.30;;;;;;6158464;23;19912;-95
2023/04/13 04:21:32;;;;;;;;;;;11.00;87.50;;;;;;6158746;23;19905;-96
2023/04/13 04:23:59;;;;;;;;;;;10.90;88.00;;;;;;6158023;23;19928;-95
2023/04/13 04:26:25;;;;;;;;;;;10.90;88.10;;;;;;6158430;23;19908;-96
2023/04/13 04:28:51;;;;;;;;;;;10.80;88.40;;;;;;6158415;23;19909;-95
2023/04/13 04:31:18;;;;;;;;;;;10.80;88.60;;;;;;6158244;23;20268;-95
2023/04/13 04:33:45;;;;;;;;;;;10.80;88.50;;;;;;6157983;23;19935;-96
2023/04/13 04:36:15;;;;;;;;;;;10.80;89.00;;;;;;6158632;23;19905;-95
2023/04/13 04:38:40;;;;;;;;;;;10.80;89.10;;;;;;6131905;23;19904;-95
2023/04/13 04:41:07;;;;;;;;;;;10.80;89.30;;;;;;6157945;23;19951;-96
2023/04/13 04:43:34;;;;;;;;;;;10.80;89.40;;;;;;6158227;23;19955;-95
2023/04/13 04:46:02;;;;;;;;;;;10.70;89.70;;;;;;6158094;23;19905;-96
2023/04/13 04:48:30;;;;;;;;;;;10.70;89.90;;;;;;6157876;23;19908;-96
2023/04/13 04:50:56;;;;;;;;;;;10.70;89.70;;;;;;6158153;23;20341;-96
2023/04/13 04:53:22;;;;;;;;;;;10.70;89.50;;;;;;6157820;23;19939;-96
2023/04/13 04:55:48;;;;;;;;;;;10.70;89.50;;;;;;6158454;23;19905;-96
2023/04/13 04:58:14;;;;;;;;;;;10.80;89.50;;;;;;6157770;23;19955;-96
2023/04/13 05:00:39;;;;;;;;;;;10.80;89.50;;;;;;6131373;23;19905;-95
2023/04/13 05:03:06;;;;;;;;;;;10.80;89.50;;;;;;6157585;23;19904;-96
2023/04/13 05:05:32;;;;;;;;;;;10.70;89.60;;;;;;6131307;23;19905;-96
2023/04/13 05:07:59;;;;;;;;;;;10.70;89.80;;;;;;6157491;23;19917;-96
2023/04/13 05:10:27;;;;;;;;;;;10.70;89.80;;;;;;6158405;23;20007;-96
2023/04/13 05:12:52;;;;;;;;;;;10.80;89.80;;;;;;6157791;23;19905;-96
2023/04/13 05:15:18;;;;;;;;;;;10.70;90.00;;;;;;6158074;23;19915;-96
2023/04/13 05:17:45;;;;;;;;;;;10.70;89.50;;;;;;6158831;23;19912;-96
2023/04/13 05:20:12;;;;;;;;;;;10.80;89.50;;;;;;6160547;23;19932;-96
2023/04/13 05:22:38;;;;;;;;;;;10.80;89.40;;;;;;6137658;23;19909;-96
2023/04/13 05:25:03;;;;;;;;;;;10.80;89.20;;;;;;6163946;23;20389;-96
2023/04/13 05:27:29;;;;;;;;;;;10.80;89.20;;;;;;6137456;23;20239;-96
2023/04/13 05:29:56;;;;;;;;;;;10.80;89.50;;;;;;6134225;23;19908;-96
2023/04/13 05:32:21;;;;;;;;;;;10.60;89.90;;;;;;6157892;23;19921;-95
2023/04/13 05:34:47;;;;;;;;;;;10.60;90.50;;;;;;6160531;23;19904;-96
2023/04/13 05:37:14;;;;;;;;;;;10.50;90.50;;;;;;6166726;23;19904;-96
2023/04/13 05:39:39;;;;;;;;;;;10.50;90.50;;;;;;6163373;23;19905;-96
2023/04/13 05:42:05;;;;;;;;;;;10.40;90.90;;;;;;6159564;23;19928;-96
2023/04/13 05:44:31;;;;;;;;;;;10.40;90.90;;;;;;6133571;23;19905;-96
2023/04/13 05:46:57;;;;;;;;;;;10.40;91.10;;;;;;6159718;23;19905;-96
2023/04/13 05:49:22;;;;;;;;;;;10.40;91.40;;;;;;6157927;23;20338;-96
2023/04/13 05:51:48;;;;;;;;;;;10.40;91.30;;;;;;6158306;23;19959;-96
2023/04/13 05:54:13;;;;;;;;;;;10.40;91.20;;;;;;6159142;23;19980;-96
2023/04/13 05:56:39;;;;;;;;;;;10.40;91.50;;;;;;6158384;23;20286;-96
2023/04/13 05:59:05;;;;;;;;;;;10.40;91.80;;;;;;6159043;23;19940;-96
2023/04/13 06:01:31;;;;;;;;;;;10.30;92.20;;;;;;6132809;23;19904;-96
2023/04/13 06:03:57;;;;;;;;;;;10.30;92.20;;;;;;6158934;23;20323;-96
2023/04/13 06:06:23;;;;;;;;;;;10.30;92.00;;;;;;6159803;23;19905;-96
2023/04/13 06:08:48;;;;;;;;;;;10.40;92.00;;;;;;6159634;23;19983;-96
2023/04/13 06:11:14;;;;;;;;;;;10.40;91.90;;;;;;6159742;23;20343;-96
2023/04/13 06:13:40;;;;;;;;;;;10.50;91.80;;;;;;6159602;23;19955;-96
2023/04/13 06:16:06;;;;;;;;;;;10.60;91.40;;;;;;6159720;23;19905;-96
2023/04/13 06:18:32;;;;;;;;;;;10.80;91.30;;;;;;6161035;23;19905;-96
2023/04/13 06:20:58;;;;;;;;;;;10.90;90.50;;;;;;6161177;23;19950;-96
2023/04/13 06:23:24;;;;;;;;;;;10.90;90.30;;;;;;6160298;23;19928;-96
2023/04/13 06:25:49;;;;;;;;;;;11.00;89.60;;;;;;6132994;23;19955;-96
2023/04/13 06:28:15;;;;;;;;;;;11.00;89.50;;;;;;6159610;23;19919;-96
2023/04/13 06:30:41;;;;;;;;;;;11.10;89.20;;;;;;6133148;23;19983;-96
2023/04/13 06:33:06;;;;;;;;;;;11.10;88.80;;;;;;6159336;23;19912;-96
2023/04/13 06:35:32;;;;;;;;;;;11.20;88.70;;;;;;6159972;23;19939;-96
2023/04/13 06:37:59;;;;;;;;;;;11.10;88.50;;;;;;6159128;23;19905;-96
2023/04/13 06:40:26;;;;;;;;;;;11.00;88.80;;;;;;6158032;23;19927;-96
2023/04/13 06:42:52;;;;;;;;;;;10.90;89.30;;;;;;6161584;23;19911;-96
2023/04/13 06:45:17;;;;;;;;;;;10.80;89.60;;;;;;6137644;23;19905;-96
2023/04/13 06:47:43;;;;;;;;;;;10.90;89.90;;;;;;6160913;23;19912;-96
2023/04/13 06:50:10;;;;;;;;;;;10.90;89.90;;;;;;6159749;23;19904;-96
2023/04/13 06:52:35;;;;;;;;;;;11.00;89.70;;;;;;6159665;23;19908;-95
2023/04/13 06:55:01;;;;;;;;;;;11.10;89.40;;;;;;6133274;23;19905;-96
2023/04/13 06:57:27;;;;;;;;;;;11.20;89.10;;;;;;6134155;23;20315;-96
2023/04/13 06:59:53;;;;;;;;;;;11.30;88.90;;;;;;6165659;23;19904;-96
2023/04/13 07:02:19;;;;;;;;;;;11.30;88.30;;;;;;6169079;23;19905;-95
2023/04/13 07:04:44;;;;;;;;;;;11.40;87.70;;;;;;6141666;23;19916;-96
2023/04/13 07:07:10;;;;;;;;;;;11.50;87.40;;;;;;6167862;23;19916;-96
2023/04/13 07:09:36;;;;;;;;;;;11.50;87.20;;;;;;6169756;23;19927;-96
2023/04/13 07:12:03;;;;;;;;;;;11.60;86.90;;;;;;6168928;23;20239;-96
2023/04/13 07:14:34;;;;;;;;;;;11.60;87.10;;;;;;6167716;23;19904;-96
2023/04/13 07:17:00;;;;;;;;;;;11.80;87.00;;;;;;6142101;23;19956;-96
2023/04/13 07:19:28;;;;;;;;;;;11.80;87.20;;;;;;6145944;23;19912;-96
2023/04/13 07:21:54;;;;;;;;;;;11.90;87.00;;;;;;6150904;23;19908;-96
2023/04/13 07:24:20;;;;;;;;;;;12.00;86.70;;;;;;6149848;23;19905;-96
2023/04/13 07:26:46;;;;;;;;;;;12.00;86.50;;;;;;6150492;23;19908;-96
2023/04/13 07:29:14;;;;;;;;;;;12.10;86.10;;;;;;6164964;23;19929;-95
2023/04/13 07:31:40;;;;;;;;;;;12.00;86.40;;;;;;6169474;23;19944;-96
2023/04/13 07:34:05;;;;;;;;;;;12.10;86.20;;;;;;6169119;23;19928;-96
2023/04/13 07:36:31;;;;;;;;;;;12.10;86.30;;;;;;6170125;23;20243;-96
2023/04/13 07:38:57;;;;;;;;;;;12.10;86.30;;;;;;6133176;23;19904;-96
2023/04/13 07:41:23;;;;;;;;;;;12.20;86.20;;;;;;6132331;23;20323;-96
2023/04/13 07:43:50;;;;;;;;;;;12.10;86.10;;;;;;6138902;23;19912;-96
2023/04/13 07:46:15;;;;;;;;;;;12.10;86.40;;;;;;6167145;23;19904;-96
2023/04/13 07:48:41;;;;;;;;;;;12.20;86.40;;;;;;6141697;23;19919;-96
2023/04/13 07:51:15;;;;;;;;;;;12.20;86.60;;;;;;6168313;23;19949;-96
2023/04/13 07:53:40;;;;;;;;;;;12.20;86.30;;;;;;6168423;23;19968;-96
2023/04/13 07:56:06;;;;;;;;;;;12.20;86.50;;;;;;6140325;23;19904;-96
2023/04/13 07:58:32;;;;;;;;;;;12.20;86.40;;;;;;6165859;23;19973;-96
2023/04/13 08:00:59;;;;;;;;;;;12.20;86.80;;;;;;6173121;23;20319;-96
2023/04/13 08:03:25;;;;;;;;;;;12.30;86.70;;;;;;6135452;23;20335;-96
2023/04/13 08:05:51;;;;;;;;;;;12.30;86.70;;;;;;6161906;23;20239;-95
2023/04/13 08:08:16;;;;;;;;;;;12.40;86.60;;;;;;6160981;23;20243;-96
2023/04/13 08:10:42;;;;;;;;;;;12.30;86.60;;;;;;6161634;23;19920;-96
2023/04/13 08:13:07;;;;;;;;;;;12.40;86.50;;;;;;6162279;23;19912;-96
2023/04/13 08:15:33;;;;;;;;;;;12.30;86.90;;;;;;6168296;23;19912;-96
2023/04/13 08:17:59;;;;;;;;;;;12.40;87.00;;;;;;6143630;23;19928;-96
2023/04/13 08:20:24;;;;;;;;;;;12.40;87.20;;;;;;6171973;23;19905;-96
2023/04/13 08:22:51;;;;;;;;;;;12.30;87.40;;;;;;6174516;23;19904;-96
2023/04/13 08:25:16;;;;;;;;;;;12.40;87.30;;;;;;6173032;23;19904;-96
2023/04/13 08:27:42;;;;;;;;;;;12.40;87.00;;;;;;6176189;23;19913;-96
2023/04/13 08:30:10;;;;;;;;;;;12.40;86.70;;;;;;6162793;23;19923;-96
2023/04/13 08:32:36;;;;;;;;;;;12.40;86.80;;;;;;6152897;23;19963;-96
2023/04/13 08:35:06;;;;;;;;;;;12.40;87.00;;;;;;6149960;23;19909;-96
2023/04/13 08:37:32;;;;;;;;;;;12.40;87.20;;;;;;6176216;23;19927;-95
2023/04/13 08:39:59;;;;;;;;;;;12.40;87.30;;;;;;6156165;23;19924;-96
2023/04/13 08:42:30;;;;;;;;;;;12.40;87.60;;;;;;6155966;23;19905;-96
2023/04/13 08:44:58;;;;;;;;;;;12.50;87.70;;;;;;6157629;23;19912;-96
2023/04/13 08:47:28;;;;;;;;;;;12.60;87.60;;;;;;6157582;23;19920;-96
2023/04/13 08:49:59;;;;;;;;;;;12.60;87.40;;;;;;6157828;23;19912;-96
2023/04/13 08:52:27;;;;;;;;;;;12.60;87.10;;;;;;6183041;23;19970;-96
2023/04/13 08:55:01;;;;;;;;;;;12.50;87.10;;;;;;6157718;23;19905;-96
2023/04/13 08:57:28;;;;;;;;;;;12.50;87.10;;;;;;6134479;23;19924;-96
2023/04/13 08:59:55;;;;;;;;;;;12.50;87.40;;;;;;6173831;23;19911;-96
2023/04/13 09:02:25;;;;;;;;;;;12.60;87.20;;;;;;6140914;23;19953;-96
2023/04/13 09:04:52;;;;;;;;;;;12.70;86.90;;;;;;6139466;23;19905;-95
2023/04/13 09:07:24;;;;;;;;;;;12.60;86.90;;;;;;6164265;23;19909;-96
2023/04/13 09:09:51;;;;;;;;;;;12.60;87.30;;;;;;6163516;23;19932;-96
2023/04/13 09:12:16;;;;;;;;;;;12.60;86.80;;;;;;6145767;23;19912;-96
2023/04/13 09:14:42;;;;;;;;;;;12.60;87.00;;;;;;6166745;23;19908;-96
2023/04/13 09:17:08;;;;;;;;;;;12.60;87.10;;;;;;6170834;23;19908;-96
2023/04/13 09:19:34;;;;;;;;;;;12.50;87.30;;;;;;6140959;23;19967;-96
2023/04/13 09:22:10;;;;;;;;;;;12.50;87.40;;;;;;6139105;23;19905;-96
2023/04/13 09:24:40;;;;;;;;;;;12.50;87.30;;;;;;6163484;23;19905;-96
2023/04/13 09:27:15;;;;;;;;;;;12.40;87.50;;;;;;6133593;23;19959;-96
2023/04/13 09:29:47;;;;;;;;;;;12.50;87.80;;;;;;6131564;23;19996;-96
2023/04/13 09:32:17;;;;;;;;;;;12.50;87.80;;;;;;6135241;23;19913;-96
2023/04/13 09:34:43;;;;;;;;;;;12.70;87.40;;;;;;6136231;23;19911;-96
2023/04/13 09:37:12;;;;;;;;;;;12.60;87.20;;;;;;6133730;23;19905;-96
2023/04/13 09:39:38;;;;;;;;;;;12.60;87.60;;;;;;6134029;23;19905;-96
2023/04/13 09:42:09;;;;;;;;;;;12.60;87.70;;;;;;6131922;23;20243;-96
2023/04/13 09:44:35;;;;;;;;;;;12.80;87.50;;;;;;6132904;23;19905;-96
2023/04/13 09:47:01;;;;;;;;;;;12.80;87.60;;;;;;6130712;23;19905;-96
2023/04/13 09:49:40;;;;;;;;;;;12.80;87.70;;;;;;6131942;23;19911;-96
2023/04/13 09:52:07;;;;;;;;;;;12.80;87.70;;;;;;6134725;23;19911;-96
2023/04/13 09:54:32;;;;;;;;;;;12.80;87.80;;;;;;6134276;23;19983;-96
2023/04/13 09:56:58;;;;;;;;;;;12.90;87.70;;;;;;6133894;23;19948;-96
2023/04/13 09:59:24;;;;;;;;;;;13.00;87.70;;;;;;6132013;23;19929;-96
2023/04/13 10:01:53;;;;;;;;;;;13.00;87.80;;;;;;6131366;23;20324;-96
2023/04/13 10:04:19;;;;;;;;;;;13.10;87.80;;;;;;6130297;23;19956;-96
2023/04/13 10:06:46;;;;;;;;;;;13.20;87.50;;;;;;6129862;23;19909;-96
2023/04/13 10:09:12;;;;;;;;;;;13.30;87.20;;;;;;6130629;23;20020;-96
2023/04/13 10:11:41;;;;;;;;;;;13.40;87.00;;;;;;6128177;23;20267;-96
2023/04/13 10:14:12;;;;;;;;;;;13.40;86.50;;;;;;6131190;23;19905;-96
2023/04/13 10:16:44;;;;;;;;;;;13.40;86.00;;;;;;6131465;23;19960;-96
2023/04/13 10:19:14;;;;;;;;;;;13.50;86.10;;;;;;6131587;23;19905;-96
2023/04/13 10:21:42;;;;;;;;;;;13.60;85.90;;;;;;6131705;23;19905;-96
2023/04/13 10:24:08;;;;;;;;;;;13.60;85.60;;;;;;6131228;23;19936;-96
2023/04/13 10:26:35;;;;;;;;;;;13.50;85.40;;;;;;6131524;23;19995;-96
2023/04/13 10:29:01;;;;;;;;;;;13.40;85.40;;;;;;6131909;23;19908;-96
2023/04/13 10:31:35;;;;;;;;;;;13.50;85.40;;;;;;6160777;23;19908;-96
2023/04/13 10:34:01;;;;;;;;;;;13.50;86.00;;;;;;6160674;23;19936;-96
2023/04/13 10:36:36;;;;;;;;;;;13.40;86.20;;;;;;6161219;23;19988;-96
2023/04/13 10:39:02;;;;;;;;;;;13.50;86.10;;;;;;6136196;23;19983;-96
2023/04/13 10:41:27;;;;;;;;;;;13.60;86.10;;;;;;6135939;23;20386;-96
2023/04/13 10:44:03;;;;;;;;;;;13.40;86.00;;;;;;6164104;23;20319;-95
2023/04/13 10:46:29;;;;;;;;;;;13.50;86.60;;;;;;6166390;23;19911;-96
2023/04/13 10:48:57;;;;;;;;;;;13.60;86.70;;;;;;6166178;23;19996;-96
2023/04/13 10:51:24;;;;;;;;;;;13.70;86.40;;;;;;6140803;23;19909;-96
2023/04/13 10:53:50;;;;;;;;;;;13.80;86.20;;;;;;6138984;23;19994;-96
2023/04/13 10:56:16;;;;;;;;;;;13.70;85.80;;;;;;6163129;23;19909;-96
2023/04/13 10:58:42;;;;;;;;;;;13.90;85.60;;;;;;6167127;23;19947;-96
2023/04/13 11:01:09;;;;;;;;;;;13.80;86.10;;;;;;6139970;23;19905;-96
2023/04/13 11:03:36;;;;;;;;;;;13.90;85.80;;;;;;6139032;23;20327;-96
2023/04/13 11:06:02;;;;;;;;;;;13.90;85.40;;;;;;6165317;23;19983;-96
2023/04/13 11:08:29;;;;;;;;;;;13.90;85.50;;;;;;6165852;23;19948;-96
2023/04/13 11:10:55;;;;;;;;;;;13.90;85.60;;;;;;6166413;23;19905;-96
2023/04/13 11:13:21;;;;;;;;;;;13.90;85.40;;;;;;6141577;23;19912;-96
2023/04/13 11:15:48;;;;;;;;;;;14.00;85.70;;;;;;6168380;23;19952;-96
2023/04/13 11:18:22;;;;;;;;;;;14.10;85.70;;;;;;6139353;23;19905;-96
2023/04/13 11:20:48;;;;;;;;;;;14.10;85.00;;;;;;6163377;23;19905;-96
2023/04/13 11:23:22;;;;;;;;;;;13.90;85.10;;;;;;6137433;23;20303;-96
2023/04/13 11:26:00;;;;;;;;;;;13.70;86.00;;;;;;6137611;23;19988;-96
2023/04/13 11:28:56;;;;;;;;;;;13.50;86.70;;;;;;6164475;23;19915;-96
2023/04/13 11:31:22;;;;;;;;;;;13.40;87.20;;;;;;6130011;23;19917;-96
2023/04/13 11:33:48;;;;;;;;;;;13.20;86.70;;;;;;6132456;23;20447;-96
2023/04/13 11:36:15;;;;;;;;;;;13.00;85.80;;;;;;6157776;23;19904;-96
2023/04/13 11:38:41;;;;;;;;;;;13.00;86.00;;;;;;6131918;23;19952;-96
2023/04/13 11:41:07;;;;;;;;;;;12.90;86.40;;;;;;6159092;23;19904;-96
2023/04/13 11:43:33;;;;;;;;;;;12.90;85.70;;;;;;6159756;23;19913;-96
2023/04/13 11:45:59;;;;;;;;;;;12.80;85.80;;;;;;6159511;23;19931;-96
2023/04/13 11:48:25;;;;;;;;;;;12.80;86.00;;;;;;6131702;23;19909;-96
2023/04/13 11:50:51;;;;;;;;;;;12.80;85.20;;;;;;6157263;23;19904;-96
2023/04/13 11:53:17;;;;;;;;;;;12.70;85.10;;;;;;6157270;23;19929;-95
2023/04/13 11:55:42;;;;;;;;;;;12.70;85.10;;;;;;6158934;23;20256;-95
2023/04/13 11:58:09;;;;;;;;;;;12.50;85.60;;;;;;6158365;23;20286;-96
2023/04/13 12:00:40;;;;;;;;;;;12.50;85.50;;;;;;6158731;23;19905;-96
2023/04/13 12:03:13;;;;;;;;;;;12.60;85.60;;;;;;6132239;23;19904;-96
2023/04/13 12:05:39;;;;;;;;;;;12.60;84.70;;;;;;6132603;23;19947;-95
2023/04/13 12:08:05;;;;;;;;;;;12.70;84.50;;;;;;6158879;23;19924;-95
2023/04/13 12:10:33;;;;;;;;;;;12.80;84.20;;;;;;6159344;23;19904;-94
2023/04/13 12:12:59;;;;;;;;;;;12.70;82.80;;;;;;6158693;23;19905;-95
2023/04/13 12:15:28;;;;;;;;;;;12.70;83.10;;;;;;6161210;23;19955;-96
2023/04/13 12:17:54;;;;;;;;;;;12.70;83.50;;;;;;6160253;23;19912;-96
2023/04/13 12:20:20;;;;;;;;;;;12.90;83.40;;;;;;6159483;23;19983;-96
2023/04/13 12:22:45;;;;;;;;;;;12.90;81.80;;;;;;6159776;23;19904;-96
2023/04/13 12:25:14;;;;;;;;;;;12.90;82.00;;;;;;6160367;23;19905;-96
2023/04/13 12:27:40;;;;;;;;;;;12.80;82.60;;;;;;6158964;23;19908;-96
2023/04/13 12:30:09;;;;;;;;;;;12.70;82.60;;;;;;6159923;23;19925;-96
2023/04/13 12:32:38;;;;;;;;;;;12.80;82.30;;;;;;6160307;23;19908;-96
2023/04/13 12:35:04;;;;;;;;;;;12.70;82.80;;;;;;6160184;23;19905;-96
2023/04/13 12:37:30;;;;;;;;;;;12.80;82.50;;;;;;6160590;23;19912;-96
2023/04/13 12:39:56;;;;;;;;;;;12.90;82.40;;;;;;6160739;23;19904;-96
2023/04/13 12:42:21;;;;;;;;;;;12.90;82.50;;;;;;6159998;23;20331;-96
2023/04/13 12:44:47;;;;;;;;;;;12.90;82.70;;;;;;6160137;23;19905;-96
2023/04/13 12:47:13;;;;;;;;;;;12.90;81.60;;;;;;6158973;23;19912;-96
2023/04/13 12:49:38;;;;;;;;;;;12.80;81.50;;;;;;6134428;23;19908;-96
2023/04/13 12:52:04;;;;;;;;;;;12.80;81.20;;;;;;6159836;23;19998;-96
2023/04/13 12:54:29;;;;;;;;;;;12.50;82.00;;;;;;6159891;23;19955;-96
2023/04/13 12:56:56;;;;;;;;;;;12.50;82.30;;;;;;6158831;23;19904;-96
2023/04/13 12:59:21;;;;;;;;;;;12.40;81.90;;;;;;6159973;23;19949;-96
2023/04/13 13:01:47;;;;;;;;;;;12.30;81.40;;;;;;6159851;23;19904;-96
2023/04/13 13:04:13;;;;;;;;;;;12.10;82.00;;;;;;6132850;23;19916;-96
2023/04/13 13:06:39;;;;;;;;;;;12.10;82.50;;;;;;6158898;23;19943;-96
2023/04/13 13:09:06;;;;;;;;;;;12.00;82.60;;;;;;6157715;23;19947;-96
2023/04/13 13:11:32;;;;;;;;;;;11.80;83.70;;;;;;6157623;23;19905;-95
2023/04/13 13:13:57;;;;;;;;;;;11.60;83.10;;;;;;6157704;23;20212;-96
2023/04/13 13:16:23;;;;;;;;;;;11.60;83.30;;;;;;6157569;23;20295;-96
2023/04/13 13:18:49;;;;;;;;;;;11.40;83.70;;;;;;6157709;23;19904;-95
2023/04/13 13:21:14;;;;;;;;;;;11.50;83.90;;;;;;6157598;23;19936;-96
2023/04/13 13:23:40;;;;;;;;;;;11.50;83.30;;;;;;6131511;23;20311;-96
2023/04/13 13:26:06;;;;;;;;;;;11.60;83.40;;;;;;6157584;23;19920;-96
2023/04/13 13:28:31;;;;;;;;;;;11.60;84.20;;;;;;6157604;23;19991;-96
2023/04/13 13:30:57;;;;;;;;;;;11.70;83.80;;;;;;6157424;23;19966;-96
2023/04/13 13:33:22;;;;;;;;;;;11.70;83.70;;;;;;6157465;23;20220;-96
2023/04/13 13:35:48;;;;;;;;;;;11.70;83.90;;;;;;6157554;23;20331;-96
2023/04/13 13:38:13;;;;;;;;;;;11.70;83.90;;;;;;6157561;23;19911;-96
2023/04/13 13:40:39;;;;;;;;;;;11.60;84.00;;;;;;6158061;23;19980;-96
2023/04/13 13:43:05;;;;;;;;;;;11.70;84.00;;;;;;6157258;23;20212;-96
2023/04/13 13:45:30;;;;;;;;;;;11.60;83.20;;;;;;6157159;23;20553;-96
2023/04/13 13:47:56;;;;;;;;;;;11.50;83.30;;;;;;6157496;23;19909;-96
2023/04/13 13:50:22;;;;;;;;;;;11.50;83.00;;;;;;6157049;23;19912;-95
2023/04/13 13:52:48;;;;;;;;;;;11.40;82.60;;;;;;6130989;23;19905;-96
2023/04/13 13:55:17;;;;;;;;;;;11.50;82.50;;;;;;6131019;23;19909;-96
2023/04/13 13:57:42;;;;;;;;;;;11.40;83.00;;;;;;6131036;23;19905;-96
2023/04/13 14:00:18;;;;;;;;;;;11.50;82.90;;;;;;6157328;23;20353;-96
2023/04/13 14:02:45;;;;;;;;;;;11.50;82.50;;;;;;6156644;23;19908;-96
2023/04/13 14:05:13;;;;;;;;;;;11.40;82.90;;;;;;6157012;23;19904;-96
2023/04/13 14:07:39;;;;;;;;;;;11.30;83.10;;;;;;6130848;23;19912;-96
2023/04/13 14:10:05;;;;;;;;;;;11.10;82.90;;;;;;6156894;23;20377;-96
2023/04/13 14:12:31;;;;;;;;;;;11.00;83.00;;;;;;6157090;23;19904;-96
2023/04/13 14:14:57;;;;;;;;;;;11.10;83.30;;;;;;6157387;23;19905;-96